»·PEaware :: DAL3012 KSLC-KIDA

DAL3012 :: KSLC-KIDA

FLIGHT INFORMATION

Flight Status: Arrived
Operator:
Delta Air Lines
More flights by this operator :: More flights under this callsign
Pilot: Kyle M. (9350)
Aircraft: BOEING 737-800
(B738)
More flights by this aircraft type
Origin: KSLC Salt Lake City Intl
United States
Destination: KIDA Idaho Falls Regl
United States
More flights between these airports :: More routes between these airports
Route: +RUGGD1 HOLTR
File this flight plan on PilotEdge
Remarks: RMK / SIMBRIEF
Altitude:
(Current/Filed)
28,000ft
Speed:
(Current/Filed)
435kts
Departed: 30-Jul-20 01:18 PM
Arrived: 30-Jul-20 01:59 PM
Distance/Time
Traveled:
164nm/0:40
Distance/Time
To Go:
Arrived

Flight Plot

Page will automatically refresh every two minutes.


Map Options




Map Legend


Flown Route
Filed Route
Departure Airport
Arrival Airport
Navaid (VOR, NDB)
Fix

Horizontal Profiles

Position Reports

Time Latitude Longitude Heading Altitude Ground
Speed
30-Jul-20 12:56 40.789106 -111.980752 229 4238ft 0kts
30-Jul-20 12:57 40.789106 -111.980752 229 4238ft 0kts
30-Jul-20 12:58 40.789107 -111.980752 229 4237ft 0kts
30-Jul-20 12:59 40.789107 -111.980752 229 4237ft 0kts
30-Jul-20 13:00 40.789107 -111.980752 229 4237ft 0kts
30-Jul-20 13:01 40.789107 -111.980752 229 4237ft 0kts
30-Jul-20 13:02 40.789107 -111.980752 229 4237ft 0kts
30-Jul-20 13:03 40.789107 -111.980752 229 4237ft 0kts
30-Jul-20 13:04 40.789107 -111.980752 229 4237ft 0kts
30-Jul-20 13:05 40.789107 -111.980752 229 4237ft 0kts
30-Jul-20 13:06 40.789107 -111.980752 229 4237ft 0kts
30-Jul-20 13:07 40.789281 -111.980487 229 4237ft 2kts
30-Jul-20 13:08 40.789679 -111.980215 123 4237ft 1kts
30-Jul-20 13:09 40.789715 -111.980321 113 4237ft 0kts
30-Jul-20 13:10 40.789715 -111.980321 113 4237ft 0kts
30-Jul-20 13:11 40.789659 -111.978965 84 4237ft 6kts
30-Jul-20 13:13 40.789691 -111.978535 84 4237ft 0kts
30-Jul-20 13:14 40.788815 -111.976948 175 4237ft 11kts
30-Jul-20 13:15 40.783840 -111.976370 174 4237ft 21kts
30-Jul-20 13:16 40.778276 -111.975240 171 4237ft 17kts
30-Jul-20 13:17 40.774591 -111.974662 138 4237ft 4kts
30-Jul-20 13:18 40.781256 -111.973897 354 4237ft 110kts
30-Jul-20 13:19 40.829161 -111.979543 353 6215ft 185kts
30-Jul-20 13:20 40.880109 -112.012643 307 7553ft 239kts
30-Jul-20 13:21 40.924683 -112.091065 305 9841ft 278kts
30-Jul-20 13:22 40.995964 -112.122752 20 12029ft 320kts
30-Jul-20 13:23 41.048336 -112.020709 77 13722ft 371kts
30-Jul-20 13:24 41.089780 -111.893318 60 16198ft 383kts
30-Jul-20 13:25 41.151702 -111.780961 30 18549ft 385kts
30-Jul-20 13:26 41.253684 -111.739746 7 20729ft 389kts
30-Jul-20 13:27 41.362136 -111.714046 7 22781ft 401kts
30-Jul-20 13:28 41.472516 -111.674591 12 24681ft 415kts
30-Jul-20 13:29 41.585464 -111.630676 12 26393ft 428kts
30-Jul-20 13:30 41.701843 -111.584992 11 27970ft 440kts
30-Jul-20 13:30 41.801851 -111.548560 6 28240ft 451kts
30-Jul-20 13:31 41.925168 -111.519052 5 28237ft 447kts
30-Jul-20 13:33 42.069371 -111.486054 5 28336ft 447kts
30-Jul-20 13:33 42.171971 -111.462704 4 28356ft 447kts
30-Jul-20 13:34 42.294522 -111.434735 5 27586ft 433kts
30-Jul-20 13:35 42.411525 -111.419346 351 26190ft 416kts
30-Jul-20 13:36 42.525764 -111.433572 350 24773ft 405kts
30-Jul-20 13:37 42.636695 -111.448367 350 24356ft 403kts
30-Jul-20 13:38 42.749473 -111.435861 5 23530ft 403kts
30-Jul-20 13:39 42.858410 -111.410102 5 21921ft 392kts
30-Jul-20 13:40 42.965014 -111.385103 5 20309ft 383kts
30-Jul-20 13:41 43.069020 -111.360987 5 18700ft 374kts
30-Jul-20 13:42 43.171474 -111.337543 6 17084ft 369kts
30-Jul-20 13:43 43.272551 -111.315109 6 15471ft 364kts
30-Jul-20 13:44 43.372364 -111.293994 4 13990ft 358kts
30-Jul-20 13:45 43.453282 -111.349653 304 13123ft 343kts
30-Jul-20 13:46 43.506225 -111.460421 303 13118ft 344kts
30-Jul-20 13:47 43.534518 -111.582304 262 13117ft 345kts
30-Jul-20 13:48 43.484817 -111.693433 231 12598ft 333kts
30-Jul-20 13:49 43.425165 -111.791939 231 11598ft 333kts
30-Jul-20 13:50 43.367463 -111.887687 231 10616ft 307kts
30-Jul-20 13:51 43.317455 -111.970488 234 10545ft 255kts
30-Jul-20 13:52 43.296544 -112.065686 274 9433ft 270kts
30-Jul-20 13:53 43.323256 -112.151825 315 8753ft 227kts
30-Jul-20 13:54 43.378244 -112.184975 358 7685ft 207kts
30-Jul-20 13:55 43.428480 -112.164635 34 6531ft 178kts
30-Jul-20 13:56 43.465870 -112.124092 35 5729ft 166kts
30-Jul-20 13:57 43.502355 -112.085307 37 4789ft 163kts
30-Jul-20 13:58 43.517183 -112.068343 125 4748ft 11kts
30-Jul-20 13:59 43.515467 -112.069057 154 4748ft 4kts
30-Jul-20 14:00 43.515115 -112.068699 141 4748ft 0kts

Navigation Log

Ident Type
Flight plan parsing failed, navigation log unavailable